Time;durP1;ratioP1;P1;durP2;ratioP2;P2;SDS_P1;SDS_P2;PMS_P1;PMS_P2;Temp;Humidity;BMP_temperature;BMP_pressure;BME280_temperature;BME280_humidity;BME280_pressure;Samples;Min_cycle;Max_cycle;Signal;HPM_P1;HPM_P2
2023/01/06 00:00:26;;;;;;;1.13;0.98;;;;;;;6.92;61.41;93449.50;2053485;69;20150;-74
2023/01/06 00:02:51;;;;;;;0.95;0.70;;;;;;;6.97;61.54;93451.34;2054567;69;20190;-75
2023/01/06 00:05:17;;;;;;;1.23;0.85;;;;;;;6.97;61.44;93442.19;2054336;69;20571;-75
2023/01/06 00:07:43;;;;;;;0.65;0.63;;;;;;;6.93;60.83;93447.44;2054068;69;20608;-75
2023/01/06 00:10:10;;;;;;;1.27;0.82;;;;;;;6.91;61.34;93442.41;2050040;70;20170;-74
2023/01/06 00:12:37;;;;;;;1.77;1.00;;;;;;;6.91;60.76;93441.66;2052468;69;20225;-73
2023/01/06 00:15:04;;;;;;;1.10;0.90;;;;;;;6.89;60.92;93439.44;2050859;70;20151;-73
2023/01/06 00:17:30;;;;;;;1.65;1.05;;;;;;;6.90;60.40;93434.59;2050765;70;20238;-73
2023/01/06 00:19:56;;;;;;;1.23;1.10;;;;;;;6.81;60.95;93433.13;2054168;69;20160;-74
2023/01/06 00:22:22;;;;;;;3.28;1.10;;;;;;;6.88;60.06;93437.97;2054456;70;20226;-75
2023/01/06 00:24:48;;;;;;;1.17;1.00;;;;;;;6.79;61.14;93427.38;2053387;69;20237;-74
2023/01/06 00:27:13;;;;;;;1.92;0.90;;;;;;;6.43;61.76;93408.19;2054242;69;20629;-74
2023/01/06 00:29:39;;;;;;;1.30;1.05;;;;;;;6.39;61.37;93424.59;2053601;69;20509;-73
2023/01/06 00:32:05;;;;;;;1.83;1.17;;;;;;;6.44;61.52;93426.44;2053536;70;20139;-74
2023/01/06 00:34:30;;;;;;;2.78;1.00;;;;;;;6.44;61.95;93423.66;2053558;69;20142;-76
2023/01/06 00:36:56;;;;;;;1.17;1.00;;;;;;;6.43;62.49;93410.97;2054350;69;20181;-75
2023/01/06 00:39:22;;;;;;;3.38;0.80;;;;;;;6.49;62.15;93414.28;2052914;69;20170;-76
2023/01/06 00:42:04;;;;;;;1.33;0.85;;;;;;;6.47;62.37;93416.94;2052303;70;20169;-75
2023/01/06 00:44:36;;;;;;;1.75;1.10;;;;;;;6.22;62.24;93414.03;2053495;70;20153;-75
2023/01/06 00:47:08;;;;;;;2.72;1.05;;;;;;;6.29;61.98;93424.47;2051301;70;20165;-75
2023/01/06 00:49:34;;;;;;;1.27;0.90;;;;;;;6.10;62.60;93410.94;2052056;70;20173;-73
2023/01/06 00:52:00;;;;;;;1.88;1.17;;;;;;;6.05;62.61;93421.00;2054315;69;20234;-73
2023/01/06 00:54:25;;;;;;;1.13;1.00;;;;;;;6.16;62.02;93417.06;2053854;70;20260;-73
2023/01/06 00:56:53;;;;;;;1.92;1.10;;;;;;;6.14;62.32;93414.09;2053697;70;20192;-74
2023/01/06 00:59:23;;;;;;;1.55;1.00;;;;;;;6.11;62.00;93418.75;2049307;70;20186;-74
2023/01/06 01:01:53;;;;;;;1.45;1.02;;;;;;;6.07;63.11;93420.44;2050728;69;20370;-75
2023/01/06 01:04:20;;;;;;;3.10;1.05;;;;;;;5.93;62.87;93424.78;2050573;69;20247;-74
2023/01/06 01:06:47;;;;;;;2.08;1.05;;;;;;;5.48;63.95;93435.44;2053141;70;20624;-74
2023/01/06 01:09:22;;;;;;;2.40;1.30;;;;;;;5.69;63.25;93437.28;2051791;69;20230;-74
2023/01/06 01:14:39;;;;;;;1.95;1.08;;;;;;;5.57;64.04;93450.88;2053556;69;20629;-74
2023/01/06 01:17:05;;;;;;;2.05;1.10;;;;;;;5.35;64.24;93457.97;2053312;69;20276;-73
2023/01/06 01:19:31;;;;;;;1.27;1.17;;;;;;;5.45;64.32;93456.13;2051127;69;20182;-74
2023/01/06 01:21:59;;;;;;;3.35;0.95;;;;;;;5.48;64.17;93449.41;2052692;69;20253;-74
2023/01/06 01:25:15;;;;;;;1.40;0.90;;;;;;;5.51;63.88;93453.88;2052356;69;20200;-74
2023/01/06 01:27:40;;;;;;;1.58;1.15;;;;;;;5.09;64.49;93454.25;2051466;69;20197;-74
2023/01/06 01:30:06;;;;;;;2.22;1.30;;;;;;;4.94;65.89;93456.28;2053266;69;20245;-74
2023/01/06 01:32:32;;;;;;;2.20;1.17;;;;;;;5.03;65.02;93453.66;2053625;69;20521;-74
2023/01/06 01:34:57;;;;;;;3.65;1.25;;;;;;;4.91;65.90;93452.56;2053212;70;20208;-75
2023/01/06 01:37:23;;;;;;;2.50;1.30;;;;;;;4.91;66.24;93451.81;2052715;70;20513;-74
2023/01/06 01:39:49;;;;;;;2.70;1.30;;;;;;;5.00;65.54;93452.00;2054199;69;20232;-74
2023/01/06 01:42:17;;;;;;;1.85;1.20;;;;;;;5.06;65.64;93451.81;2051553;69;20616;-73
2023/01/06 01:45:03;;;;;;;2.75;1.30;;;;;;;5.08;64.97;93452.00;2053323;69;20182;-73
2023/01/06 01:47:44;;;;;;;2.35;1.10;;;;;;;5.09;64.84;93454.25;2053701;69;20157;-73
2023/01/06 01:50:22;;;;;;;1.38;1.10;;;;;;;5.04;65.74;93457.19;2053397;70;20150;-73
2023/01/06 01:52:52;;;;;;;2.10;1.10;;;;;;;4.98;65.67;93454.59;2052244;69;20189;-73
2023/01/06 01:55:18;;;;;;;3.35;1.17;;;;;;;4.78;65.09;93445.09;2049792;69;20158;-73
2023/01/06 01:58:10;;;;;;;1.77;1.05;;;;;;;4.70;66.01;93451.97;2053947;69;20645;-73
2023/01/06 02:00:38;;;;;;;2.05;1.13;;;;;;;4.60;67.18;93454.53;2053333;70;20238;-73
2023/01/06 02:03:05;;;;;;;2.95;1.02;;;;;;;4.71;66.50;93456.22;2050307;69;20174;-73
2023/01/06 02:05:35;;;;;;;1.42;0.90;;;;;;;4.75;66.46;93453.81;2049887;69;20206;-73
2023/01/06 02:08:12;;;;;;;3.10;1.58;;;;;;;3.98;68.75;93463.97;2053415;69;20314;-72
2023/01/06 02:10:38;;;;;;;4.18;1.23;;;;;;;4.34;67.22;93463.94;2053301;70;20245;-73
2023/01/06 02:13:04;;;;;;;2.15;1.35;;;;;;;4.38;66.63;93460.78;2053160;70;20157;-73
2023/01/06 02:15:33;;;;;;;2.35;1.10;;;;;;;4.47;67.27;93463.06;2051857;69;20161;-74
2023/01/06 02:18:05;;;;;;;2.05;1.20;;;;;;;4.45;66.81;93449.66;2052794;70;20192;-73
2023/01/06 02:20:58;;;;;;;2.63;1.00;;;;;;;4.18;67.87;93435.28;2052836;69;20220;-73
2023/01/06 02:23:53;;;;;;;;;;;;;;;4.39;67.99;93429.56;2050160;70;20151;-72
2023/01/06 02:26:44;;;;;;;3.75;1.00;;;;;;;4.44;67.26;93430.69;2050381;70;20066;-74
2023/01/06 02:29:44;;;;;;;3.22;1.10;;;;;;;4.24;67.74;93432.31;2053654;70;20197;-72
2023/01/06 02:32:28;;;;;;;2.53;1.30;;;;;;;4.34;67.66;93431.22;2051144;69;20602;-72
2023/01/06 02:35:06;;;;;;;2.13;1.10;;;;;;;4.37;66.65;93432.16;2052725;70;20170;-72
2023/01/06 02:37:35;;;;;;;1.67;1.00;;;;;;;4.13;68.66;93430.59;2053099;70;20293;-74
2023/01/06 02:40:20;;;;;;;2.80;1.23;;;;;;;4.30;66.95;93425.25;2053732;69;20150;-74
2023/01/06 02:42:59;;;;;;;2.88;1.00;;;;;;;4.26;66.95;93419.31;2050472;70;20182;-74
2023/01/06 02:45:51;;;;;;;1.80;1.27;;;;;;;4.30;67.15;93421.72;2053724;69;20153;-74
2023/01/06 02:48:27;;;;;;;2.55;1.17;;;;;;;4.39;66.83;93417.66;2053397;69;20624;-75
2023/01/06 02:51:19;;;;;;;2.08;1.00;;;;;;;4.25;66.37;93420.59;2051422;69;20165;-73
2023/01/06 02:54:24;;;;;;;1.98;1.10;;;;;;;4.20;66.71;93410.38;2050118;70;20618;-74
2023/01/06 02:57:13;;;;;;;3.50;1.25;;;;;;;4.19;66.75;93410.94;2052779;69;20138;-73
2023/01/06 02:59:50;;;;;;;2.55;1.30;;;;;;;4.26;67.37;93407.41;2054991;69;20225;-74
2023/01/06 03:02:18;;;;;;;2.10;1.20;;;;;;;4.16;66.98;93420.38;2052926;69;20134;-73
2023/01/06 03:04:47;;;;;;;6.32;1.40;;;;;;;4.13;66.99;93413.16;2052766;69;20590;-74
2023/01/06 03:07:16;;;;;;;2.63;1.33;;;;;;;4.11;66.95;93413.69;2051901;69;20618;-74
2023/01/06 03:09:43;;;;;;;2.38;1.05;;;;;;;4.11;66.90;93405.31;2053803;69;20157;-75
2023/01/06 03:12:34;;;;;;;2.85;1.25;;;;;;;4.23;66.86;93403.69;2051834;69;20185;-74
2023/01/06 03:15:01;;;;;;;2.20;1.10;;;;;;;3.99;67.82;93388.19;2052047;69;20245;-74
2023/01/06 03:17:29;;;;;;;2.80;1.20;;;;;;;4.05;66.89;93405.50;2050697;69;20186;-77
2023/01/06 03:19:56;;;;;;;3.05;1.40;;;;;;;4.05;67.53;93408.28;2051708;69;20214;-73
2023/01/06 03:22:23;;;;;;;2.17;1.10;;;;;;;4.06;66.21;93398.63;2051311;69;20161;-74
2023/01/06 03:24:49;;;;;;;2.10;1.10;;;;;;;4.17;67.21;93399.56;2053751;69;20569;-73
2023/01/06 03:27:20;;;;;;;2.47;1.05;;;;;;;3.98;67.03;93402.66;2051703;69;20154;-74
2023/01/06 03:29:46;;;;;;;1.08;0.82;;;;;;;3.98;67.41;93403.41;2052960;69;20145;-74
2023/01/06 03:32:29;;;;;;;2.47;0.85;;;;;;;4.04;66.54;93404.00;2052792;69;20161;-73
2023/01/06 03:35:10;;;;;;;3.28;1.02;;;;;;;4.03;66.40;93385.81;2050039;70;20138;-74
2023/01/06 03:37:51;;;;;;;2.28;1.05;;;;;;;3.97;66.85;93396.34;2051470;69;20177;-74
2023/01/06 03:40:26;;;;;;;3.25;0.82;;;;;;;4.00;67.19;93388.94;2053804;69;20184;-75
2023/01/06 03:43:15;;;;;;;2.17;0.93;;;;;;;4.04;66.82;93381.72;2053487;70;20148;-75
2023/01/06 03:45:55;;;;;;;2.05;1.08;;;;;;;4.00;66.42;93391.72;2051538;69;20205;-75
2023/01/06 03:48:38;;;;;;;1.70;1.00;;;;;;;3.96;66.63;93392.09;2056118;69;20145;-75
2023/01/06 03:51:41;;;;;;;1.67;1.00;;;;;;;3.78;68.05;93384.75;2052565;69;20158;-75
2023/01/06 03:54:11;;;;;;;1.08;0.80;;;;;;;3.78;67.38;93385.50;2052029;69;20158;-74
2023/01/06 03:56:45;;;;;;;3.00;1.10;;;;;;;3.47;68.12;93386.63;2054094;69;20146;-73
2023/01/06 03:59:16;;;;;;;2.03;1.10;;;;;;;3.63;67.79;93393.06;2053562;70;20594;-74
2023/01/06 04:01:43;;;;;;;1.95;1.15;;;;;;;3.63;67.72;93387.47;2052637;69;20173;-74
2023/01/06 04:04:10;;;;;;;1.83;1.13;;;;;;;3.46;68.31;93391.47;2053048;69;20176;-74
2023/01/06 04:06:36;;;;;;;1.70;1.10;;;;;;;3.56;68.01;93383.34;2053576;69;20589;-73
2023/01/06 04:09:04;;;;;;;1.83;1.00;;;;;;;3.75;67.07;93385.84;2053634;70;20181;-74
2023/01/06 04:14:17;;;;;;;2.20;1.40;;;;;;;3.67;67.08;93377.47;2053232;69;20248;-73
2023/01/06 04:16:43;;;;;;;2.72;1.40;;;;;;;3.42;68.45;93373.63;2052389;69;20162;-74
2023/01/06 04:19:09;;;;;;;2.22;1.17;;;;;;;3.55;67.44;93370.72;2050880;70;20317;-75
2023/01/06 04:21:35;;;;;;;2.15;1.50;;;;;;;3.43;67.75;93369.53;2053675;70;20146;-75
2023/01/06 04:24:02;;;;;;;2.55;1.30;;;;;;;3.57;67.45;93376.47;2053062;69;20149;-73
2023/01/06 04:26:27;;;;;;;1.23;1.00;;;;;;;3.55;66.54;93371.47;2051629;69;20142;-74
2023/01/06 04:28:53;;;;;;;5.57;1.13;;;;;;;3.48;67.01;93372.19;2052505;70;20253;-74
2023/01/06 04:31:18;;;;;;;2.85;1.10;;;;;;;3.43;67.05;93369.53;2050661;70;20586;-74
2023/01/06 04:33:46;;;;;;;1.85;1.30;;;;;;;3.40;67.45;93373.44;2051513;70;20154;-73
2023/01/06 04:36:13;;;;;;;1.17;1.00;;;;;;;3.38;67.84;93351.69;2053111;69;20166;-74
2023/01/06 04:38:42;;;;;;;1.80;1.30;;;;;;;3.30;67.73;93359.28;2050415;70;20232;-74
2023/01/06 04:41:07;;;;;;;2.38;1.15;;;;;;;3.41;67.93;93372.88;2048134;70;20162;-74
2023/01/06 04:43:33;;;;;;;2.15;0.93;;;;;;;3.37;67.93;93371.75;2050773;69;20526;-73
2023/01/06 04:45:59;;;;;;;1.85;1.20;;;;;;;3.29;67.46;93366.13;2051774;69;20352;-75
2023/01/06 04:48:25;;;;;;;2.05;0.93;;;;;;;3.39;67.42;93374.72;2054388;69;20149;-75
2023/01/06 04:51:00;;;;;;;2.60;1.30;;;;;;;3.23;67.69;93371.09;2053124;69;20148;-74
2023/01/06 04:53:27;;;;;;;1.60;1.20;;;;;;;3.21;67.76;93376.47;2054138;69;20232;-74
2023/01/06 04:55:52;;;;;;;3.00;1.83;;;;;;;2.94;68.58;93370.34;2052886;69;20173;-74
2023/01/06 04:58:18;;;;;;;6.88;4.32;;;;;;;3.14;68.75;93368.81;2053653;69;20153;-73
2023/01/06 05:00:43;;;;;;;5.28;2.80;;;;;;;3.31;68.44;93364.28;2054156;69;20166;-74
2023/01/06 05:03:09;;;;;;;2.60;1.75;;;;;;;3.41;67.47;93370.09;2054051;69;20253;-75
2023/01/06 05:05:36;;;;;;;5.38;2.20;;;;;;;3.21;67.94;93368.13;2054215;69;20146;-74
2023/01/06 05:08:02;;;;;;;3.10;1.85;;;;;;;3.10;67.67;93373.97;2054073;69;20261;-74
2023/01/06 05:10:28;;;;;;;4.72;2.85;;;;;;;2.84;68.39;93366.56;2051794;69;21637;-74
2023/01/06 05:12:54;;;;;;;80.00;39.50;;;;;;;3.11;68.71;93372.69;2054215;70;20177;-75
2023/01/06 05:15:19;;;;;;;27.35;14.77;;;;;;;3.18;67.87;93378.31;2052112;69;20177;-73
2023/01/06 05:17:45;;;;;;;18.92;10.20;;;;;;;3.03;67.82;93375.44;2054563;70;20611;-74
2023/01/06 05:20:12;;;;;;;9.77;6.32;;;;;;;3.03;68.66;93375.44;2053928;69;20153;-74
2023/01/06 05:22:38;;;;;;;11.35;6.47;;;;;;;3.12;68.68;93377.72;2052707;69;20224;-74
2023/01/06 05:25:04;;;;;;;10.70;7.40;;;;;;;3.08;67.81;93368.22;2052189;69;20198;-74
2023/01/06 05:27:30;;;;;;;11.27;7.10;;;;;;;3.13;67.61;93372.91;2050129;70;20197;-75
2023/01/06 05:30:05;;;;;;;10.18;6.55;;;;;;;3.22;67.43;93366.84;2051959;69;20237;-74
2023/01/06 05:32:30;;;;;;;8.23;5.30;;;;;;;3.13;67.82;93370.13;2051628;69;20177;-73
2023/01/06 05:34:56;;;;;;;7.78;5.32;;;;;;;2.82;69.18;93378.22;2053381;69;20250;-74
2023/01/06 05:37:22;;;;;;;7.75;4.80;;;;;;;2.85;67.87;93377.16;2054252;69;20216;-74
2023/01/06 05:39:47;;;;;;;6.25;4.22;;;;;;;2.83;67.96;93374.16;2052256;69;20286;-74
2023/01/06 05:42:15;;;;;;;6.57;4.32;;;;;;;2.82;67.90;93383.06;2050944;69;20181;-74
2023/01/06 05:44:41;;;;;;;6.60;4.90;;;;;;;2.79;68.14;93376.53;2052363;69;20150;-74
2023/01/06 05:47:06;;;;;;;6.75;4.78;;;;;;;2.77;69.19;93379.84;2053652;69;20216;-73
2023/01/06 05:49:33;;;;;;;6.28;4.85;;;;;;;2.78;68.54;93380.59;2053158;69;20273;-73
2023/01/06 05:52:02;;;;;;;6.63;4.93;;;;;;;2.80;67.62;93383.59;2052497;69;20154;-74
2023/01/06 05:54:32;;;;;;;9.65;6.00;;;;;;;2.85;69.06;93376.41;2052036;69;20179;-73
2023/01/06 05:56:57;;;;;;;9.68;5.28;;;;;;;2.92;68.15;93379.22;2051853;69;20162;-74
2023/01/06 05:59:26;;;;;;;7.65;4.90;;;;;;;2.87;66.97;93382.16;2053109;69;20158;-75
2023/01/06 06:01:52;;;;;;;8.60;5.50;;;;;;;2.82;68.19;93394.16;2053145;69;20621;-74
2023/01/06 06:04:17;;;;;;;11.20;6.60;;;;;;;2.75;68.34;93385.22;2052743;69;20241;-75
2023/01/06 06:06:43;;;;;;;19.27;9.10;;;;;;;2.74;68.05;93375.38;2050974;69;20248;-74
2023/01/06 06:09:09;;;;;;;27.73;12.95;;;;;;;2.82;68.00;93380.28;2051611;69;20162;-74
2023/01/06 06:11:35;;;;;;;19.50;10.27;;;;;;;2.76;68.17;93383.94;2051415;69;20148;-73
2023/01/06 06:14:00;;;;;;;30.67;15.10;;;;;;;2.79;68.96;93380.06;2052258;70;20150;-75
2023/01/06 06:16:27;;;;;;;18.35;9.88;;;;;;;2.70;67.84;93388.91;2053470;70;21440;-74
2023/01/06 06:18:56;;;;;;;17.50;9.88;;;;;;;2.71;67.88;93395.19;2051847;69;20158;-74
2023/01/06 06:21:27;;;;;;;12.45;6.88;;;;;;;2.61;67.53;93388.59;2052945;70;20674;-75
2023/01/06 06:23:54;;;;;;;10.32;5.78;;;;;;;2.69;68.25;93400.53;2053323;70;20655;-73
2023/01/06 06:26:20;;;;;;;14.90;8.00;;;;;;;2.65;67.65;93397.34;2054076;69;20567;-74
2023/01/06 06:28:47;;;;;;;22.10;12.38;;;;;;;2.49;69.01;93400.00;2054387;69;20566;-74
2023/01/06 06:31:40;;;;;;;23.17;11.90;;;;;;;2.60;68.46;93387.88;2053543;70;20165;-74
2023/01/06 06:34:06;;;;;;;32.83;18.25;;;;;;;2.49;68.85;93393.72;2051599;70;20150;-73
2023/01/06 06:36:31;;;;;;;29.13;16.20;;;;;;;2.53;67.72;93397.63;2053988;69;20138;-75
2023/01/06 06:38:57;;;;;;;18.38;10.95;;;;;;;2.55;67.57;93394.31;2053781;69;20320;-74
2023/01/06 06:41:24;;;;;;;32.65;13.02;;;;;;;2.65;67.38;93394.56;2052420;69;20150;-74
2023/01/06 06:43:53;;;;;;;17.90;9.90;;;;;;;2.44;67.63;93394.59;2053461;69;20176;-73
2023/01/06 06:46:19;;;;;;;20.38;10.07;;;;;;;2.40;67.47;93397.69;2053371;69;20146;-72
2023/01/06 06:48:45;;;;;;;38.08;15.63;;;;;;;2.57;68.30;93396.53;2051818;69;20705;-73
2023/01/06 06:51:15;;;;;;;25.98;11.88;;;;;;;2.57;67.56;93399.31;2053835;69;20602;-73
2023/01/06 06:53:41;;;;;;;15.88;5.85;;;;;;;2.57;67.46;93390.97;2053265;69;20259;-74
2023/01/06 06:56:08;;;;;;;17.63;7.55;;;;;;;2.53;67.78;93394.84;2054257;69;20558;-72
2023/01/06 06:58:36;;;;;;;124.95;45.67;;;;;;;2.44;67.79;93397.38;2052868;69;20605;-74
2023/01/06 07:01:03;;;;;;;109.03;41.63;;;;;;;2.35;68.65;93403.38;2050753;69;20229;-74
2023/01/06 07:03:29;;;;;;;82.75;33.38;;;;;;;2.39;68.53;93390.66;2049684;69;20597;-74
2023/01/06 07:05:56;;;;;;;80.55;32.88;;;;;;;2.46;68.54;93400.34;2053832;70;20598;-74
2023/01/06 07:08:22;;;;;;;73.78;30.67;;;;;;;2.44;67.70;93400.88;2054153;69;20178;-74
2023/01/06 07:10:47;;;;;;;56.53;23.90;;;;;;;2.52;69.22;93403.72;2054061;69;20570;-74
2023/01/06 07:13:13;;;;;;;41.78;20.02;;;;;;;2.59;68.58;93399.53;2053543;69;20196;-74
2023/01/06 07:15:38;;;;;;;63.42;28.92;;;;;;;2.66;69.43;93402.41;2053021;69;20142;-74
2023/01/06 07:18:05;;;;;;;54.20;25.60;;;;;;;2.44;69.20;93392.53;2054061;69;20138;-75
2023/01/06 07:20:33;;;;;;;45.67;22.27;;;;;;;2.56;69.53;93393.00;2054913;69;20246;-74
2023/01/06 07:22:58;;;;;;;37.72;17.00;;;;;;;2.44;69.96;93402.91;2053443;70;20167;-75
2023/01/06 07:25:24;;;;;;;27.88;14.85;;;;;;;2.60;70.06;93396.19;2051689;69;20689;-74
2023/01/06 07:27:58;;;;;;;28.13;14.10;;;;;;;2.61;69.55;93399.72;2055998;69;20168;-74
2023/01/06 07:30:25;;;;;;;27.17;13.95;;;;;;;2.60;69.12;93398.97;2051925;70;20146;-74
2023/01/06 07:32:52;;;;;;;24.35;12.13;;;;;;;2.57;69.46;93386.19;2053399;69;20173;-75
2023/01/06 07:35:18;;;;;;;44.42;21.48;;;;;;;2.64;69.62;93396.63;2052596;69;20150;-74
2023/01/06 07:37:44;;;;;;;38.72;21.00;;;;;;;2.68;69.54;93401.84;2051218;70;20205;-74
2023/01/06 07:40:11;;;;;;;32.45;17.25;;;;;;;2.65;69.19;93405.69;2052715;69;20268;-74
2023/01/06 07:42:37;;;;;;;29.65;13.63;;;;;;;2.78;69.37;93400.81;2054804;69;20551;-75
2023/01/06 07:45:04;;;;;;;32.30;17.27;;;;;;;2.88;68.35;93400.31;2054145;70;20146;-74
2023/01/06 07:47:29;;;;;;;28.52;15.23;;;;;;;2.85;68.77;93407.00;2054679;69;20182;-74
2023/01/06 07:49:55;;;;;;;28.60;14.80;;;;;;;2.92;68.36;93403.53;2054329;69;20583;-74
2023/01/06 07:52:21;;;;;;;25.25;13.20;;;;;;;2.93;68.83;93405.00;2054652;69;20589;-72
2023/01/06 07:54:46;;;;;;;25.25;14.38;;;;;;;2.84;68.41;93402.69;2053343;69;20232;-75
2023/01/06 07:57:12;;;;;;;41.13;21.67;;;;;;;2.93;68.74;93403.00;2053686;69;20151;-74
2023/01/06 07:59:37;;;;;;;28.42;15.85;;;;;;;3.02;68.70;93408.06;2054728;69;20517;-75
2023/01/06 08:02:03;;;;;;;27.27;14.02;;;;;;;3.20;68.95;93400.75;2054270;69;20161;-74
2023/01/06 08:04:28;;;;;;;29.95;16.25;;;;;;;3.09;68.90;93405.88;2054338;69;20152;-74
2023/01/06 08:06:55;;;;;;;32.50;16.50;;;;;;;3.02;68.87;93399.72;2053048;69;20603;-74
2023/01/06 08:09:21;;;;;;;27.17;14.07;;;;;;;3.02;69.17;93405.28;2052786;69;20233;-75
2023/01/06 08:11:47;;;;;;;27.55;11.93;;;;;;;2.98;69.25;93401.34;2053336;69;20142;-74
2023/01/06 08:14:12;;;;;;;32.75;17.58;;;;;;;3.13;69.32;93398.69;2053764;69;20176;-75
2023/01/06 08:16:38;;;;;;;35.33;19.00;;;;;;;3.12;69.61;93391.63;2054210;69;20188;-74
2023/01/06 08:19:05;;;;;;;39.08;21.38;;;;;;;3.16;69.08;93402.41;2053619;70;20173;-74
2023/01/06 08:21:30;;;;;;;38.08;20.92;;;;;;;3.24;68.69;93403.94;2053484;69;21788;-74
2023/01/06 08:23:56;;;;;;;37.40;20.33;;;;;;;3.45;69.28;93400.38;2054096;69;20633;-74
2023/01/06 08:26:22;;;;;;;30.27;16.90;;;;;;;3.40;68.74;93399.22;2053944;69;20141;-73
2023/01/06 08:28:48;;;;;;;30.50;16.27;;;;;;;3.53;68.85;93401.16;2052840;70;20486;-73
2023/01/06 08:31:17;;;;;;;36.97;20.48;;;;;;;3.42;67.56;93396.63;2054483;70;20162;-75
2023/01/06 08:33:43;;;;;;;37.70;19.92;;;;;;;3.43;67.54;93395.34;2054637;70;20185;-74
2023/01/06 08:36:13;;;;;;;35.35;20.15;;;;;;;3.47;67.37;93395.00;2051176;70;20162;-74
2023/01/06 08:38:38;;;;;;;34.72;19.48;;;;;;;3.43;67.96;93398.13;2053739;69;20142;-74
2023/01/06 08:41:04;;;;;;;32.88;17.73;;;;;;;3.41;67.58;93405.53;2054427;69;20165;-74
2023/01/06 08:43:30;;;;;;;33.95;17.98;;;;;;;3.53;67.38;93406.75;2054634;69;20246;-73
2023/01/06 08:46:01;;;;;;;34.50;16.60;;;;;;;3.62;68.05;93400.66;2054388;69;20153;-74
2023/01/06 08:48:27;;;;;;;26.77;13.88;;;;;;;3.13;68.48;93411.84;2054039;69;20153;-72
2023/01/06 08:50:53;;;;;;;23.10;12.60;;;;;;;3.54;68.18;93397.81;2054593;69;20234;-73
2023/01/06 08:53:19;;;;;;;24.50;13.50;;;;;;;3.76;68.47;93399.25;2053101;69;20154;-73
2023/01/06 08:55:44;;;;;;;27.00;15.10;;;;;;;4.23;68.56;93403.69;2051538;69;20158;-73
2023/01/06 08:58:10;;;;;;;29.65;16.00;;;;;;;4.44;67.20;93397.22;2053898;69;20188;-73
2023/01/06 09:00:38;;;;;;;31.08;17.27;;;;;;;4.69;67.05;93398.22;2053955;69;20709;-73
2023/01/06 09:03:04;;;;;;;48.97;25.23;;;;;;;4.71;65.43;93397.66;2053918;69;20626;-72
2023/01/06 09:05:29;;;;;;;41.45;20.23;;;;;;;4.79;63.46;93390.03;2053854;69;20148;-73
2023/01/06 09:07:55;;;;;;;19.58;10.75;;;;;;;4.87;62.32;93387.28;2051089;69;20180;-74
2023/01/06 09:10:21;;;;;;;22.10;11.43;;;;;;;5.03;62.21;93388.75;2051750;69;20150;-74
2023/01/06 09:12:47;;;;;;;17.35;8.77;;;;;;;5.48;61.98;93406.78;2053587;69;20142;-74
2023/01/06 09:15:13;;;;;;;16.33;8.88;;;;;;;5.74;60.17;93397.97;2053726;69;20281;-75
2023/01/06 09:17:39;;;;;;;44.15;25.30;;;;;;;5.06;59.95;93398.81;2054609;69;20314;-75
2023/01/06 09:20:05;;;;;;;36.95;18.50;;;;;;;5.38;60.22;93403.06;2054516;69;20157;-75
2023/01/06 09:22:30;;;;;;;27.42;15.73;;;;;;;6.11;61.16;93395.63;2054001;69;20173;-74
2023/01/06 09:24:56;;;;;;;39.88;22.98;;;;;;;6.50;59.31;93390.59;2053503;69;20149;-73
2023/01/06 09:27:22;;;;;;;31.77;18.40;;;;;;;6.62;57.63;93394.44;2054476;69;20154;-73
2023/01/06 09:29:48;;;;;;;27.48;15.93;;;;;;;6.68;58.92;93386.56;2054495;69;20230;-73
2023/01/06 09:32:13;;;;;;;23.90;11.77;;;;;;;6.05;56.53;93383.94;2054469;69;20153;-73
2023/01/06 09:34:39;;;;;;;19.70;11.77;;;;;;;6.04;57.60;93385.97;2051421;69;20150;-73
2023/01/06 09:37:04;;;;;;;17.48;11.30;;;;;;;6.59;58.08;93395.56;2052960;69;20142;-74
2023/01/06 09:39:31;;;;;;;20.85;13.15;;;;;;;7.16;56.68;93394.84;2050928;70;20249;-74
2023/01/06 09:42:11;;;;;;;25.25;12.85;;;;;;;7.11;57.03;93393.75;2051300;69;20146;-74
2023/01/06 09:44:49;;;;;;;19.45;8.25;;;;;;;7.23;56.29;93390.47;2051684;69;20193;-74
2023/01/06 09:47:18;;;;;;;14.85;7.70;;;;;;;7.56;55.85;93386.25;2054604;69;20149;-74
2023/01/06 09:50:13;;;;;;;18.65;9.85;;;;;;;8.01;54.15;93386.34;2054527;69;20130;-74
2023/01/06 09:52:47;;;;;;;18.40;9.95;;;;;;;8.26;51.92;93378.56;2051372;69;20219;-74
2023/01/06 09:55:18;;;;;;;15.25;9.15;;;;;;;8.52;53.10;93377.16;2050968;70;20222;-74
2023/01/06 09:57:50;;;;;;;13.68;7.45;;;;;;;9.37;53.46;93374.56;2052134;70;20146;-75
2023/01/06 10:00:31;;;;;;;14.32;6.55;;;;;;;9.65;49.89;93369.59;2054518;69;20160;-75
2023/01/06 10:02:57;;;;;;;14.02;7.18;;;;;;;9.55;50.08;93363.97;2053910;69;20244;-74
2023/01/06 10:05:55;;;;;;;15.05;7.75;;;;;;;9.80;49.51;93362.94;2054410;69;20498;-75
2023/01/06 10:08:33;;;;;;;10.00;5.60;;;;;;;10.32;49.19;93359.75;2052914;69;20170;-75
2023/01/06 10:11:01;;;;;;;14.50;7.57;;;;;;;10.09;48.41;93351.72;2053669;69;20236;-73
2023/01/06 10:13:33;;;;;;;11.85;6.28;;;;;;;10.90;48.41;93351.91;2051492;69;20158;-75
2023/01/06 10:16:29;;;;;;;10.95;4.72;;;;;;;11.34;47.91;93349.94;2051843;69;20150;-74
2023/01/06 10:19:25;;;;;;;6.90;3.95;;;;;;;11.84;45.72;93335.00;2051213;70;20145;-75
2023/01/06 10:22:23;;;;;;;7.63;3.53;;;;;;;12.62;45.23;93343.53;2050937;70;20190;-74
2023/01/06 10:24:53;;;;;;;11.40;4.68;;;;;;;12.60;42.23;93332.84;2050059;70;20242;-74
2023/01/06 10:27:35;;;;;;;7.75;4.70;;;;;;;12.30;41.74;93330.91;2053232;69;20161;-75
2023/01/06 10:30:04;;;;;;;10.27;5.20;;;;;;;12.45;41.14;93325.56;2052962;69;20227;-74
2023/01/06 10:32:33;;;;;;;13.38;4.97;;;;;;;12.66;41.69;93313.47;2050997;70;20242;-74
2023/01/06 10:34:59;;;;;;;8.27;3.83;;;;;;;12.77;40.83;93308.44;2050435;70;20154;-75
2023/01/06 10:37:33;;;;;;;12.30;9.43;;;;;;;13.81;40.47;93297.75;2051005;70;20158;-75
2023/01/06 10:40:20;;;;;;;21.45;10.20;;;;;;;13.79;38.36;93300.44;2050338;70;20578;-74
2023/01/06 10:43:07;;;;;;;15.55;10.23;;;;;;;14.29;38.91;93294.13;2050978;70;20169;-74
2023/01/06 10:45:44;;;;;;;10.05;5.03;;;;;;;14.29;38.57;93284.91;2053093;69;20550;-74
2023/01/06 10:48:15;;;;;;;7.15;4.55;;;;;;;14.74;37.42;93288.88;2054417;69;20181;-74
2023/01/06 10:50:41;;;;;;;6.38;3.88;;;;;;;15.35;36.20;93288.59;2054238;69;20605;-75
2023/01/06 10:53:10;;;;;;;8.63;3.15;;;;;;;14.54;36.73;93284.19;2054346;69;20613;-76
2023/01/06 10:55:47;;;;;;;8.45;3.28;;;;;;;15.55;35.79;93283.22;2051615;69;20583;-75
2023/01/06 10:58:29;;;;;;;8.50;3.53;;;;;;;16.41;33.43;93281.84;2051068;70;20242;-75
2023/01/06 11:01:08;;;;;;;8.10;5.60;;;;;;;16.23;35.51;93271.06;2053020;70;20160;-73
2023/01/06 11:03:35;;;;;;;8.02;4.72;;;;;;;17.92;33.95;93265.97;2053009;69;20176;-74
2023/01/06 11:06:14;;;;;;;4.47;2.75;;;;;;;18.82;30.82;93261.81;2051063;70;20228;-75
2023/01/06 11:08:41;;;;;;;7.13;3.63;;;;;;;17.76;31.54;93263.16;2054142;69;20248;-74
2023/01/06 11:11:16;;;;;;;8.02;3.63;;;;;;;20.38;30.83;93251.72;2051312;70;20138;-75
2023/01/06 11:13:48;;;;;;;7.10;4.57;;;;;;;21.34;27.31;93254.78;2051111;70;20547;-75
2023/01/06 11:16:19;;;;;;;;;;;;;;;21.75;28.26;93250.22;2051574;70;20153;-75
2023/01/06 11:18:59;;;;;;;7.95;4.65;;;;;;;22.74;27.08;93251.38;2051390;70;20134;-75
2023/01/06 11:21:52;;;;;;;8.82;5.90;;;;;;;20.17;26.44;93246.75;2050792;69;20158;-76
2023/01/06 11:24:23;;;;;;;8.70;4.77;;;;;;;17.73;30.94;93242.41;2053153;70;20575;-76
2023/01/06 11:26:53;;;;;;;7.53;4.07;;;;;;;16.04;32.09;93237.44;2054327;69;20142;-76
2023/01/06 11:29:32;;;;;;;5.80;3.28;;;;;;;15.57;32.56;93231.50;2052745;69;20158;-75
2023/01/06 11:32:23;;;;;;;6.13;3.50;;;;;;;15.11;33.14;93219.22;2051340;70;20157;-75
2023/01/06 11:35:03;;;;;;;4.65;3.10;;;;;;;13.66;34.41;93223.38;2051752;70;20158;-74
2023/01/06 11:37:39;;;;;;;7.03;4.05;;;;;;;13.85;35.88;93216.66;2053581;69;20150;-74
2023/01/06 11:40:29;;;;;;;6.68;3.90;;;;;;;13.56;35.94;93205.81;2054496;69;20164;-74
2023/01/06 11:43:00;;;;;;;5.88;3.42;;;;;;;13.56;35.78;93216.38;2054190;69;20177;-73
2023/01/06 11:45:33;;;;;;;12.52;6.03;;;;;;;12.03;38.97;93199.38;2054782;69;20162;-76
2023/01/06 11:48:01;;;;;;;12.93;4.97;;;;;;;11.97;39.18;93187.00;2054732;69;20150;-73
2023/01/06 11:50:27;;;;;;;7.65;4.32;;;;;;;12.14;40.19;93190.22;2054626;69;20146;-74
2023/01/06 11:53:03;;;;;;;15.70;7.80;;;;;;;10.50;42.76;93192.16;2051487;69;20158;-74
2023/01/06 11:55:29;;;;;;;11.82;6.63;;;;;;;10.80;42.20;93192.72;2050613;70;20221;-74